CheckWX is a tool to help pilots better visualize weather data.  It is not intended as a substitute for an official pre-flight weather briefing.

12:31:28 UTC

KOFK TAF
Norfolk Regional / Karl Stefan Memorial Field Airport
Norfolk, Nebraska, USA
KOFK 081120Z 0812/0912 VRB04KT P6SM BKN200 FM082100 11006KT P6SM OVC200 FM090700 34009KT P6SM OVC030 FM090900 34015G25KT 6SM -SN OVC015

Dec-8@
12:00 UTC

Dec-8 @ 12:00 UTC

Dec-8@
21:00 UTC

Dec-8 @ 21:00 UTC

KOFK 081120Z 0812/0912 VRB04KT P6SM BKN200
Wind
  • Variable at 4 KTS
Cloud Levels
  • Broken at 20,000' AGL

Dec-8@
21:00 UTC

Dec-8 @ 21:00 UTC

Dec-9@
07:00 UTC

Dec-9 @ 07:00 UTC

FM082100 11006KT P6SM OVC200

From

From Standard forecast or significant change

Wind
  • 110° at 6 KTS
Cloud Levels
  • Overcast at 20,000' AGL

Dec-9@
07:00 UTC

Dec-9 @ 07:00 UTC

Dec-9@
09:00 UTC

Dec-9 @ 09:00 UTC

FM090700 34009KT P6SM OVC030

From

From Standard forecast or significant change

Wind
  • 340° at 9 KTS
Cloud Levels
  • Overcast at 3,000' AGL

Dec-9@
09:00 UTC

Dec-9 @ 09:00 UTC

Dec-9@
12:00 UTC

Dec-9 @ 12:00 UTC

FM090900 34015G25KT 6SM -SN OVC015

From

From Standard forecast or significant change

Wind
  • 340° at 15 KTS
  • {Gusting to 25 KTS
Conditions
Light Snow
Cloud Levels
  • Overcast at 1,500' AGL